createdAt,value
2018-02-22T00:01:40.168Z,0.40
2018-02-22T00:04:08.645Z,0.50
2018-02-22T00:06:36.208Z,0.50
2018-02-22T00:09:03.756Z,0.40
2018-02-22T00:11:31.320Z,0.40
2018-02-22T00:13:58.856Z,0.50
2018-02-22T00:16:26.415Z,0.30
2018-02-22T00:18:54.919Z,0.30
2018-02-22T00:21:22.472Z,0.20
2018-02-22T00:23:50.807Z,-0.20
2018-02-22T00:26:18.447Z,-0.20
2018-02-22T00:28:46.028Z,-0.20
2018-02-22T00:31:13.559Z,0.10
2018-02-22T00:33:41.106Z,0.20
2018-02-22T00:36:09.406Z,0.40
2018-02-22T00:38:38.895Z,0.30
2018-02-22T00:41:06.447Z,0.10
2018-02-22T00:43:33.981Z,-0.10
2018-02-22T00:46:01.551Z,0.00
2018-02-22T00:48:29.095Z,-0.20
2018-02-22T00:50:57.593Z,-0.30
2018-02-22T00:53:25.126Z,-0.50
2018-02-22T00:55:52.690Z,-0.60
2018-02-22T00:58:20.223Z,-0.60
2018-02-22T01:00:47.788Z,-0.60
2018-02-22T01:03:15.320Z,-0.60
2018-02-22T01:05:42.891Z,-0.40
2018-02-22T01:08:10.422Z,-0.50
2018-02-22T01:10:37.961Z,-0.40
2018-02-22T01:13:05.518Z,-0.40
2018-02-22T01:15:33.818Z,-0.60
2018-02-22T01:18:01.373Z,-0.60
2018-02-22T01:20:28.905Z,-0.30
2018-02-22T01:22:57.239Z,-0.30
2018-02-22T01:25:25.764Z,-0.30
2018-02-22T01:27:54.100Z,-0.20
2018-02-22T01:30:21.658Z,-0.20
2018-02-22T01:32:50.131Z,-0.40
2018-02-22T01:35:17.699Z,-0.60
2018-02-22T01:37:45.240Z,-0.50
2018-02-22T01:40:12.776Z,-0.60
2018-02-22T01:42:40.328Z,-0.50
2018-02-22T01:45:08.633Z,-0.70
2018-02-22T01:47:36.195Z,-0.70
2018-02-22T01:50:03.762Z,-0.40
2018-02-22T01:52:31.298Z,-0.50
2018-02-22T01:54:58.862Z,-0.60
2018-02-22T01:57:26.382Z,-0.50
2018-02-22T01:59:53.989Z,-0.40
2018-02-22T02:02:21.521Z,-0.20
2018-02-22T02:04:49.832Z,-0.30
2018-02-22T02:07:17.403Z,-0.30
2018-02-22T02:09:44.936Z,-0.10
2018-02-22T02:12:12.501Z,-0.10
2018-02-22T02:14:40.035Z,0.00
2018-02-22T02:17:08.335Z,-0.20
2018-02-22T02:19:37.841Z,-0.20
2018-02-22T02:22:05.370Z,-0.10
2018-02-22T02:24:33.697Z,-0.60
2018-02-22T02:27:01.234Z,-0.60
2018-02-22T02:29:28.779Z,-0.50
2018-02-22T02:31:56.355Z,-0.20
2018-02-22T02:34:23.898Z,-0.20
2018-02-22T02:36:51.465Z,-0.60
2018-02-22T02:39:19.015Z,-0.70
2018-02-22T02:41:46.548Z,-0.50
2018-02-22T02:44:14.894Z,-0.40
2018-02-22T02:46:42.458Z,-0.50
2018-02-22T02:49:10.508Z,-0.30
2018-02-22T02:51:38.976Z,-0.20
2018-02-22T02:54:06.510Z,-0.50
2018-02-22T02:56:34.839Z,-0.70
2018-02-22T02:59:02.369Z,-0.80
2018-02-22T03:01:29.946Z,-0.80
2018-02-22T03:03:57.478Z,-0.60
2018-02-22T03:15:03.954Z,-0.70
2018-02-22T03:17:31.486Z,-0.80
2018-02-22T03:19:59.043Z,-0.90
2018-02-22T03:22:26.587Z,-0.80
2018-02-22T03:24:54.115Z,-0.80
2018-02-22T03:27:21.671Z,-0.70
2018-02-22T03:29:49.213Z,-0.80
2018-02-22T03:32:16.750Z,-0.80
2018-02-22T03:34:46.266Z,-0.70
2018-02-22T03:37:13.799Z,-0.70
2018-02-22T03:39:42.352Z,-0.90
2018-02-22T03:42:10.871Z,-0.80
2018-02-22T03:44:39.350Z,-0.90
2018-02-22T03:47:06.912Z,-0.80
2018-02-22T03:49:34.447Z,-1.00
2018-02-22T03:52:02.020Z,-1.20
2018-02-22T03:54:30.529Z,-1.00
2018-02-22T03:56:58.064Z,-0.80
2018-02-22T03:59:25.628Z,-1.00
2018-02-22T04:01:53.166Z,-0.90
2018-02-22T04:04:20.724Z,-0.90
2018-02-22T04:06:48.262Z,-0.80
2018-02-22T04:09:15.797Z,-0.90
2018-02-22T04:11:44.126Z,-1.10
2018-02-22T04:14:11.958Z,-1.10
2018-02-22T04:16:39.514Z,-1.00
2018-02-22T04:19:08.044Z,-1.00
2018-02-22T04:21:36.540Z,-1.20
2018-02-22T04:24:04.093Z,-0.80
2018-02-22T04:26:31.611Z,-1.10
2018-02-22T04:28:59.165Z,-1.10
2018-02-22T04:31:26.702Z,-1.00
2018-02-22T04:33:54.231Z,-1.00
2018-02-22T04:36:21.783Z,-1.00
2018-02-22T04:38:49.316Z,-1.00
2018-02-22T04:41:16.877Z,-0.90
2018-02-22T04:43:44.408Z,-1.00
2018-02-22T04:46:11.947Z,-1.00
2018-02-22T04:48:39.510Z,-0.90
2018-02-22T04:51:07.813Z,-1.20
2018-02-22T04:53:37.307Z,-1.20
2018-02-22T04:56:04.852Z,-1.10
2018-02-22T04:58:32.388Z,-1.10
2018-02-22T05:00:59.950Z,-1.10
2018-02-22T05:03:28.433Z,-1.00
2018-02-22T05:05:56.977Z,-1.20
2018-02-22T05:08:24.513Z,-1.10
2018-02-22T05:10:52.057Z,-1.20
2018-02-22T05:13:19.622Z,-1.20
2018-02-22T05:15:47.174Z,-1.30
2018-02-22T05:18:14.730Z,-1.30
2018-02-22T05:20:43.029Z,-1.50
2018-02-22T05:23:10.571Z,-1.50
2018-02-22T05:25:38.143Z,-1.50
2018-02-22T05:28:05.665Z,-1.50
2018-02-22T05:30:33.221Z,-1.50
2018-02-22T05:33:00.748Z,-1.50
2018-02-22T05:35:28.277Z,-1.60
2018-02-22T05:37:55.834Z,-1.40
2018-02-22T05:40:23.375Z,-1.60
2018-02-22T05:42:50.926Z,-1.60
2018-02-22T05:45:18.515Z,-1.60
2018-02-22T05:47:46.051Z,-1.50
2018-02-22T05:50:14.351Z,-1.40
2018-02-22T05:52:41.911Z,-1.40
2018-02-22T05:55:09.466Z,-1.50
2018-02-22T05:57:37.759Z,-1.50
2018-02-22T06:00:06.165Z,-1.50
2018-02-22T06:02:33.759Z,-1.60
2018-02-22T06:05:01.296Z,-1.50
2018-02-22T06:07:28.854Z,-1.40
2018-02-22T06:09:56.382Z,-1.40
2018-02-22T06:12:23.944Z,-1.30
2018-02-22T06:14:51.475Z,-1.30
2018-02-22T06:17:19.054Z,-1.30
2018-02-22T06:19:46.590Z,-1.40
2018-02-22T06:22:14.131Z,-1.20
2018-02-22T06:24:41.687Z,-1.30
2018-02-22T06:27:09.990Z,-1.20
2018-02-22T06:29:38.494Z,-1.20
2018-02-22T06:32:06.054Z,-1.40
2018-02-22T06:34:33.606Z,-1.40
2018-02-22T06:37:07.017Z,-1.50
2018-02-22T06:39:43.939Z,-1.40
2018-02-22T06:42:11.528Z,-1.40
2018-02-22T06:44:39.058Z,-1.10
2018-02-22T06:47:06.608Z,-1.00
2018-02-22T06:49:34.189Z,-1.20
2018-02-22T06:52:02.677Z,-1.40
2018-02-22T06:54:30.239Z,-1.40
2018-02-22T06:56:57.775Z,-1.30
2018-02-22T06:59:25.330Z,-1.30
2018-02-22T07:01:53.839Z,-1.30
2018-02-22T07:04:21.370Z,-1.10
2018-02-22T07:06:49.690Z,-1.20
2018-02-22T07:09:17.265Z,-1.20
2018-02-22T07:11:44.823Z,-0.90
2018-02-22T07:14:13.332Z,-0.70
2018-02-22T07:16:40.872Z,-0.70
2018-02-22T07:19:08.465Z,-0.90
2018-02-22T07:21:36.780Z,-1.00
2018-02-22T07:24:04.353Z,-1.00
2018-02-22T07:26:31.891Z,-1.10
2018-02-22T07:28:59.440Z,-1.20
2018-02-22T07:31:27.953Z,-1.20
2018-02-22T07:33:56.439Z,-1.30
2018-02-22T07:36:23.999Z,-0.90
2018-02-22T07:38:51.538Z,-1.00
2018-02-22T07:41:21.052Z,-1.00
2018-02-22T07:43:48.586Z,-1.20
2018-02-22T07:46:16.114Z,-1.00
2018-02-22T07:48:44.434Z,-0.90
2018-02-22T07:51:12.964Z,-0.90
2018-02-22T07:53:41.296Z,-0.40
2018-02-22T07:56:09.786Z,-0.40
2018-02-22T07:58:37.322Z,-0.50
2018-02-22T08:01:04.874Z,-0.40
2018-02-22T08:03:32.406Z,-0.10
2018-02-22T08:05:59.959Z,-0.10
2018-02-22T08:08:28.258Z,-0.70
2018-02-22T08:10:57.542Z,-0.40
2018-02-22T08:13:25.096Z,-0.40
2018-02-22T08:15:53.599Z,-0.30
2018-02-22T08:18:21.164Z,-0.50
2018-02-22T08:20:48.693Z,-0.40
2018-02-22T08:23:16.262Z,-0.50
2018-02-22T08:25:43.795Z,-0.20
2018-02-22T08:28:11.332Z,-0.10
2018-02-22T08:30:39.882Z,-0.50
2018-02-22T08:33:07.412Z,-0.30
2018-02-22T08:35:35.019Z,-0.20
2018-02-22T08:38:03.543Z,-0.20
2018-02-22T08:40:31.138Z,0.00
2018-02-22T08:42:58.691Z,-0.40
2018-02-22T08:45:26.984Z,-0.10
2018-02-22T08:47:54.539Z,-0.10
2018-02-22T08:50:22.082Z,0.20
2018-02-22T08:52:49.609Z,0.10
2018-02-22T08:55:17.935Z,0.40
2018-02-22T08:57:45.467Z,0.40
2018-02-22T09:00:13.030Z,-0.20
2018-02-22T09:02:41.328Z,0.30
2018-02-22T09:05:09.816Z,0.30
2018-02-22T09:07:39.334Z,-0.10
2018-02-22T09:10:06.872Z,-0.10
2018-02-22T09:12:34.455Z,0.20
2018-02-22T09:15:01.989Z,0.20
2018-02-22T09:17:29.526Z,0.10
2018-02-22T09:19:57.848Z,0.10
2018-02-22T09:22:25.378Z,0.00
2018-02-22T09:24:52.935Z,-0.10
2018-02-22T09:27:20.471Z,-0.10
2018-02-22T09:29:48.946Z,0.30
2018-02-22T09:32:17.275Z,0.10
2018-02-22T09:34:44.799Z,0.10
2018-02-22T09:37:13.127Z,0.30
2018-02-22T09:39:40.654Z,0.30
2018-02-22T09:42:08.192Z,0.20
2018-02-22T09:44:36.510Z,0.50
2018-02-22T09:47:05.005Z,0.50
2018-02-22T09:49:32.554Z,0.40
2018-02-22T09:52:00.081Z,0.20
2018-02-22T09:54:27.619Z,0.30
2018-02-22T09:56:55.177Z,0.30
2018-02-22T09:59:22.706Z,0.30
2018-02-22T10:01:50.265Z,0.70
2018-02-22T10:04:17.794Z,0.80
2018-02-22T10:06:46.278Z,0.60
2018-02-22T10:09:13.831Z,0.30
2018-02-22T10:11:41.368Z,0.20
2018-02-22T10:14:09.933Z,0.00
2018-02-22T10:16:38.234Z,0.40
2018-02-22T10:19:05.764Z,0.40
2018-02-22T10:21:35.275Z,0.10
2018-02-22T10:24:03.579Z,0.00
2018-02-22T10:26:31.142Z,0.00
2018-02-22T10:28:59.651Z,0.10
2018-02-22T10:31:27.178Z,0.20
2018-02-22T10:33:56.707Z,0.10
2018-02-22T10:36:24.262Z,-0.40
2018-02-22T10:38:51.827Z,-0.20
2018-02-22T10:41:19.363Z,0.00
2018-02-22T10:43:47.862Z,-0.20
2018-02-22T10:46:15.434Z,-0.20
2018-02-22T10:48:42.966Z,0.00
2018-02-22T10:51:10.525Z,-0.20
2018-02-22T10:53:38.066Z,0.00
2018-02-22T10:56:05.638Z,-0.60
2018-02-22T10:58:33.201Z,-0.30
2018-02-22T11:01:07.412Z,-0.60
2018-02-22T11:03:34.979Z,-0.20
2018-02-22T11:06:02.540Z,-0.50
2018-02-22T11:08:30.110Z,-0.20
2018-02-22T11:10:57.635Z,0.00
2018-02-22T11:13:25.166Z,0.00
2018-02-22T11:15:52.727Z,0.20
2018-02-22T11:18:21.207Z,0.20
2018-02-22T11:20:48.754Z,0.00
2018-02-22T11:23:16.286Z,-0.10
2018-02-22T11:25:43.831Z,-0.20
2018-02-22T11:28:11.394Z,-0.30
2018-02-22T11:30:38.947Z,-0.10
2018-02-22T11:33:06.910Z,0.00
2018-02-22T11:35:35.393Z,-0.10
2018-02-22T11:38:02.972Z,-0.10
2018-02-22T11:40:30.548Z,-0.20
2018-02-22T11:42:58.092Z,-0.10
2018-02-22T11:45:25.648Z,0.20
2018-02-22T11:47:53.171Z,-0.10
2018-02-22T11:50:20.704Z,-0.20
2018-02-22T11:52:48.261Z,0.30
2018-02-22T11:55:15.798Z,0.50
2018-02-22T11:57:43.375Z,0.10
2018-02-22T12:00:10.902Z,0.00
2018-02-22T12:02:38.421Z,0.10
2018-02-22T12:05:06.408Z,0.40
2018-02-22T12:07:33.934Z,0.40
2018-02-22T12:10:03.218Z,0.00
2018-02-22T12:12:31.508Z,0.20
2018-02-22T12:14:59.813Z,0.70
2018-02-22T12:17:27.373Z,0.70
2018-02-22T12:19:54.923Z,0.40
2018-02-22T12:22:22.482Z,0.20
2018-02-22T12:24:56.003Z,0.30
2018-02-22T12:27:36.309Z,-0.10
2018-02-22T12:30:03.965Z,0.00
2018-02-22T12:32:32.294Z,-0.20
2018-02-22T12:34:59.828Z,-0.20
2018-02-22T12:37:27.976Z,0.20
2018-02-22T12:39:55.569Z,0.20
2018-02-22T12:42:23.136Z,0.50
2018-02-22T12:44:50.707Z,0.50
2018-02-22T12:47:18.242Z,0.40
2018-02-22T12:49:45.787Z,0.40
2018-02-22T12:52:13.347Z,0.20
2018-02-22T12:54:40.877Z,0.30
2018-02-22T12:57:08.430Z,0.30
2018-02-22T13:02:09.035Z,0.40
2018-02-22T13:04:36.556Z,0.70
2018-02-22T13:07:04.080Z,0.30
2018-02-22T13:09:31.629Z,0.10
2018-02-22T13:11:59.188Z,0.30
2018-02-22T13:14:26.802Z,0.40
2018-02-22T13:16:54.662Z,0.60
2018-02-22T13:19:22.248Z,1.00
2018-02-22T13:21:49.814Z,1.00
2018-02-22T13:24:17.356Z,0.60
2018-02-22T13:26:44.929Z,0.50
2018-02-22T13:29:12.462Z,0.30
2018-02-22T13:31:40.771Z,0.70
2018-02-22T13:34:19.130Z,0.70
2018-02-22T13:36:48.408Z,0.40
2018-02-22T13:39:15.986Z,0.40
2018-02-22T13:41:44.282Z,1.10
2018-02-22T13:44:23.777Z,1.10
2018-02-22T13:47:02.406Z,0.70
2018-02-22T13:49:46.933Z,1.10
2018-02-22T13:52:15.492Z,1.20
2018-02-22T13:54:43.075Z,0.60
2018-02-22T13:57:16.556Z,0.40
2018-02-22T13:59:44.125Z,0.50
2018-02-22T14:02:32.366Z,0.50
2018-02-22T14:05:00.145Z,0.00
2018-02-22T14:07:27.675Z,0.50
2018-02-22T14:09:55.214Z,0.70
2018-02-22T14:12:22.767Z,1.10
2018-02-22T14:14:51.247Z,1.10
2018-02-22T14:17:18.803Z,1.00
2018-02-22T14:19:46.327Z,1.20
2018-02-22T14:22:13.867Z,1.20
2018-02-22T14:24:41.538Z,1.20
2018-02-22T14:27:09.070Z,0.80
2018-02-22T14:29:36.758Z,0.80
2018-02-22T14:32:04.296Z,1.10
2018-02-22T14:34:31.825Z,1.10
2018-02-22T14:37:00.139Z,1.10
2018-02-22T14:39:27.674Z,1.10
2018-02-22T14:41:56.007Z,1.40
2018-02-22T14:44:23.530Z,1.40
2018-02-22T14:46:51.052Z,1.40
2018-02-22T14:49:18.610Z,1.30
2018-02-22T14:51:46.142Z,1.30
2018-02-22T14:54:13.696Z,1.10
2018-02-22T14:56:42.197Z,1.30
2018-02-22T14:59:10.694Z,1.50
2018-02-22T15:01:38.248Z,1.30
2018-02-22T15:04:05.776Z,1.40
2018-02-22T15:06:33.339Z,1.30
2018-02-22T15:09:00.868Z,1.40
2018-02-22T15:11:28.390Z,1.30
2018-02-22T15:13:55.978Z,1.20
2018-02-22T15:16:24.458Z,0.80
2018-02-22T15:18:52.238Z,0.90
2018-02-22T15:21:20.731Z,1.20
2018-02-22T15:23:48.275Z,1.50
2018-02-22T15:26:15.864Z,1.60
2018-02-22T15:28:44.343Z,1.70
2018-02-22T15:31:11.903Z,1.80
2018-02-22T15:33:39.431Z,1.80
2018-02-22T15:36:07.915Z,1.50
2018-02-22T15:38:35.471Z,1.00
2018-02-22T15:41:02.996Z,1.00
2018-02-22T15:43:31.319Z,1.00
2018-02-22T15:45:59.058Z,1.00
2018-02-22T15:48:26.599Z,1.20
2018-02-22T15:50:54.157Z,1.30
2018-02-22T15:53:22.454Z,1.00
2018-02-22T15:55:50.006Z,1.00
2018-02-22T15:58:17.551Z,1.30
2018-02-22T16:00:45.089Z,1.50
2018-02-22T16:03:14.596Z,1.50
2018-02-22T16:05:43.078Z,1.40
2018-02-22T16:08:11.409Z,1.20
2018-02-22T16:10:39.895Z,1.10
2018-02-22T16:13:07.419Z,1.20
2018-02-22T16:15:34.970Z,1.00
2018-02-22T16:18:02.498Z,0.90
2018-02-22T16:20:30.049Z,1.20
2018-02-22T16:22:57.579Z,1.30
2018-02-22T16:25:25.121Z,1.10
2018-02-22T16:27:52.675Z,1.20
2018-02-22T16:30:20.207Z,1.50
2018-02-22T16:32:48.524Z,1.40
2018-02-22T16:35:16.090Z,1.40
2018-02-22T16:37:43.619Z,1.60
2018-02-22T16:40:11.191Z,1.70
2018-02-22T16:42:38.716Z,1.70
2018-02-22T16:45:06.441Z,1.70
2018-02-22T16:47:33.970Z,1.80
2018-02-22T16:50:01.499Z,1.80
2018-02-22T16:52:29.843Z,1.60
2018-02-22T16:54:57.378Z,1.60
2018-02-22T16:57:24.923Z,1.40
2018-02-22T16:59:53.433Z,1.10
2018-02-22T17:02:21.942Z,1.20
2018-02-22T17:04:51.504Z,1.40
2018-02-22T17:07:19.071Z,1.50
2018-02-22T17:09:46.625Z,1.30
2018-02-22T17:12:14.160Z,1.10
2018-02-22T17:14:42.662Z,1.30
2018-02-22T17:17:11.194Z,1.10
2018-02-22T17:19:38.715Z,1.10
2018-02-22T17:22:08.255Z,1.20
2018-02-22T17:24:36.734Z,1.30
2018-02-22T17:27:09.781Z,1.50
2018-02-22T17:29:42.905Z,1.60
2018-02-22T17:32:16.048Z,1.60
2018-02-22T17:34:43.577Z,1.50
2018-02-22T17:37:13.865Z,1.50
2018-02-22T17:42:56.405Z,1.20
2018-02-22T17:45:24.947Z,1.30
2018-02-22T17:47:52.490Z,1.00
2018-02-22T17:50:20.271Z,0.90
2018-02-22T17:52:47.806Z,1.10
2018-02-22T17:55:15.351Z,1.10
2018-02-22T17:57:43.677Z,0.80
2018-02-22T18:00:11.220Z,0.80
2018-02-22T18:02:38.783Z,0.60
2018-02-22T18:05:06.461Z,0.80
2018-02-22T18:07:34.962Z,1.00
2018-02-22T18:10:02.535Z,1.10
2018-02-22T18:12:30.059Z,0.80
2018-02-22T18:14:57.612Z,0.80
2018-02-22T18:17:25.151Z,1.30
2018-02-22T18:19:52.676Z,1.40
2018-02-22T18:22:20.227Z,1.10
2018-02-22T18:24:47.762Z,1.10
2018-02-22T18:27:16.423Z,1.00
2018-02-22T18:29:44.239Z,1.20
2018-02-22T18:32:13.597Z,1.10
2018-02-22T18:34:42.134Z,1.00
2018-02-22T18:37:16.080Z,0.80
2018-02-22T18:39:46.149Z,0.80
2018-02-22T18:42:19.991Z,1.10
2018-02-22T18:44:56.362Z,0.90
2018-02-22T18:47:25.527Z,1.10
2018-02-22T18:49:54.440Z,1.10
2018-02-22T18:52:23.005Z,1.30
2018-02-22T18:54:51.371Z,1.40
2018-02-22T18:57:18.981Z,1.50
2018-02-22T18:59:46.562Z,1.60
2018-02-22T19:02:14.118Z,1.50
2018-02-22T19:04:41.674Z,1.30
2018-02-22T19:07:09.420Z,0.90
2018-02-22T19:09:37.080Z,0.80
2018-02-22T19:12:05.027Z,1.10
2018-02-22T19:14:32.743Z,1.30
2018-02-22T19:17:01.247Z,1.00
2018-02-22T19:19:28.774Z,1.20
2018-02-22T19:21:56.335Z,1.50
2018-02-22T19:24:23.863Z,1.50
2018-02-22T19:26:51.422Z,1.00
2018-02-22T19:29:18.962Z,1.30
2018-02-22T19:31:47.273Z,1.10
2018-02-22T19:34:14.884Z,1.10
2018-02-22T19:36:42.672Z,1.20
2018-02-22T19:39:10.454Z,1.10
2018-02-22T19:41:37.986Z,0.90
2018-02-22T19:44:05.798Z,0.90
2018-02-22T19:46:33.739Z,1.20
2018-02-22T19:49:01.339Z,1.00
2018-02-22T19:51:28.903Z,0.80
2018-02-22T19:53:57.195Z,0.90
2018-02-22T19:56:25.553Z,1.00
2018-02-22T19:58:53.110Z,1.00
2018-02-22T20:01:20.650Z,1.20
2018-02-22T20:03:48.405Z,1.40
2018-02-22T20:06:15.940Z,1.50
2018-02-22T20:08:43.524Z,1.70
2018-02-22T20:11:11.790Z,1.50
2018-02-22T20:13:40.462Z,1.50
2018-02-22T20:16:08.051Z,1.70
2018-02-22T20:18:35.580Z,1.20
2018-02-22T20:21:03.160Z,1.40
2018-02-22T20:23:30.719Z,1.30
2018-02-22T20:25:58.250Z,1.10
2018-02-22T20:28:26.060Z,0.80
2018-02-22T20:30:53.611Z,1.00
2018-02-22T20:33:21.269Z,1.20
2018-02-22T20:35:49.771Z,1.40
2018-02-22T20:38:17.322Z,1.50
2018-02-22T20:40:44.888Z,1.40
2018-02-22T20:43:13.388Z,1.50
2018-02-22T20:45:40.971Z,1.30
2018-02-22T20:48:09.172Z,1.00
2018-02-22T20:50:36.714Z,0.70
2018-02-22T20:53:05.171Z,0.60
2018-02-22T20:55:33.279Z,0.30
2018-02-22T20:58:00.941Z,0.50
2018-02-22T21:00:28.470Z,0.70
2018-02-22T21:02:56.842Z,0.80
2018-02-22T21:05:25.479Z,1.10
2018-02-22T21:07:53.032Z,1.10
2018-02-22T21:10:21.541Z,1.30
2018-02-22T21:12:49.066Z,0.90
2018-02-22T21:15:16.638Z,1.00
2018-02-22T21:17:44.251Z,1.10
2018-02-22T21:20:12.582Z,1.00
2018-02-22T21:22:40.171Z,0.90
2018-02-22T21:25:08.495Z,0.80
2018-02-22T21:27:36.244Z,0.80
2018-02-22T21:30:04.811Z,0.70
2018-02-22T21:32:33.716Z,0.80
2018-02-22T21:35:01.546Z,0.70
2018-02-22T21:37:30.824Z,0.90
2018-02-22T21:39:58.504Z,0.90
2018-02-22T21:42:26.020Z,1.00
2018-02-22T21:44:53.616Z,1.00
2018-02-22T21:47:21.158Z,1.20
2018-02-22T21:49:49.213Z,1.10
2018-02-22T21:52:16.836Z,0.90
2018-02-22T21:54:45.573Z,1.20
2018-02-22T21:57:14.161Z,1.10
2018-02-22T21:59:42.475Z,1.20
2018-02-22T22:02:11.607Z,1.00
2018-02-22T22:04:39.193Z,0.90
2018-02-22T22:07:06.743Z,0.80
2018-02-22T22:09:36.270Z,0.50
2018-02-22T22:12:03.996Z,0.50
2018-02-22T22:14:31.581Z,0.50
2018-02-22T22:16:59.917Z,0.60
2018-02-22T22:19:28.314Z,0.60
2018-02-22T22:21:55.880Z,0.50
2018-02-22T22:24:23.413Z,0.70
2018-02-22T22:26:50.975Z,0.90
2018-02-22T22:29:18.505Z,0.80
2018-02-22T22:31:46.811Z,0.40
2018-02-22T22:34:16.736Z,0.40
2018-02-22T22:36:44.262Z,0.60
2018-02-22T22:39:11.838Z,0.70
2018-02-22T22:41:39.365Z,0.50
2018-02-22T22:44:06.945Z,0.10
2018-02-22T22:46:34.517Z,0.10
2018-02-22T22:49:02.333Z,0.20
2018-02-22T22:51:29.926Z,0.30
2018-02-22T22:53:57.459Z,0.10
2018-02-22T22:56:25.016Z,0.30
2018-02-22T22:58:52.644Z,0.30
2018-02-22T23:01:20.201Z,0.30
2018-02-22T23:03:47.740Z,0.30
2018-02-22T23:06:15.508Z,0.00
2018-02-22T23:08:43.080Z,0.20
2018-02-22T23:11:10.606Z,0.40
2018-02-22T23:13:39.831Z,0.40
2018-02-22T23:16:07.360Z,0.40
2018-02-22T23:18:35.875Z,0.60
2018-02-22T23:21:04.417Z,0.60
2018-02-22T23:23:32.712Z,0.70
2018-02-22T23:26:00.282Z,0.70
2018-02-22T23:28:27.819Z,0.40
2018-02-22T23:30:56.175Z,0.20
2018-02-22T23:33:24.628Z,0.60
2018-02-22T23:35:52.152Z,0.60
2018-02-22T23:38:20.694Z,0.50
2018-02-22T23:40:49.010Z,0.50
2018-02-22T23:43:16.556Z,0.60
2018-02-22T23:45:44.120Z,0.60
2018-02-22T23:48:11.675Z,0.40
2018-02-22T23:50:39.210Z,0.30
2018-02-22T23:53:06.779Z,0.40
2018-02-22T23:55:34.327Z,0.60
2018-02-22T23:58:02.636Z,0.60
